sensor_id;sensor_type;location;lat;lon;timestamp;temperature;humidity
12303;DHT22;6214;48.012;7.862;2022-12-07T00:01:33;6.60;99.90
12303;DHT22;6214;48.012;7.862;2022-12-07T00:04:02;6.60;99.90
12303;DHT22;6214;48.012;7.862;2022-12-07T00:06:34;6.70;99.90
12303;DHT22;6214;48.012;7.862;2022-12-07T00:09:02;6.70;99.90
12303;DHT22;6214;48.012;7.862;2022-12-07T00:11:29;6.70;99.90
12303;DHT22;6214;48.012;7.862;2022-12-07T00:13:58;6.60;99.90
12303;DHT22;6214;48.012;7.862;2022-12-07T00:16:27;6.50;99.90
12303;DHT22;6214;48.012;7.862;2022-12-07T00:18:55;6.60;99.90
12303;DHT22;6214;48.012;7.862;2022-12-07T00:21:25;6.60;99.90
12303;DHT22;6214;48.012;7.862;2022-12-07T00:23:53;6.70;99.90
12303;DHT22;6214;48.012;7.862;2022-12-07T00:26:24;6.70;99.90
12303;DHT22;6214;48.012;7.862;2022-12-07T00:29:02;6.70;99.90
12303;DHT22;6214;48.012;7.862;2022-12-07T00:31:33;6.70;99.90
12303;DHT22;6214;48.012;7.862;2022-12-07T00:34:01;6.60;99.90
12303;DHT22;6214;48.012;7.862;2022-12-07T00:36:28;6.60;99.90
12303;DHT22;6214;48.012;7.862;2022-12-07T00:38:58;6.60;99.90
12303;DHT22;6214;48.012;7.862;2022-12-07T00:41:27;6.70;99.90
12303;DHT22;6214;48.012;7.862;2022-12-07T00:43:54;6.50;99.90
12303;DHT22;6214;48.012;7.862;2022-12-07T00:46:22;6.60;99.90
12303;DHT22;6214;48.012;7.862;2022-12-07T00:48:50;6.60;99.90
12303;DHT22;6214;48.012;7.862;2022-12-07T00:51:19;6.50;99.90
12303;DHT22;6214;48.012;7.862;2022-12-07T00:53:46;6.40;99.90
12303;DHT22;6214;48.012;7.862;2022-12-07T00:56:16;6.30;99.90
12303;DHT22;6214;48.012;7.862;2022-12-07T00:58:43;6.30;99.90
12303;DHT22;6214;48.012;7.862;2022-12-07T01:01:11;6.30;99.90
12303;DHT22;6214;48.012;7.862;2022-12-07T01:03:38;6.30;99.90
12303;DHT22;6214;48.012;7.862;2022-12-07T01:06:05;6.20;99.90
12303;DHT22;6214;48.012;7.862;2022-12-07T01:08:33;6.30;99.90
12303;DHT22;6214;48.012;7.862;2022-12-07T01:11:03;6.50;99.90
12303;DHT22;6214;48.012;7.862;2022-12-07T01:13:30;6.50;99.90
12303;DHT22;6214;48.012;7.862;2022-12-07T01:15:59;6.60;99.90
12303;DHT22;6214;48.012;7.862;2022-12-07T01:18:28;6.70;99.90
12303;DHT22;6214;48.012;7.862;2022-12-07T01:21:08;6.80;99.90
12303;DHT22;6214;48.012;7.862;2022-12-07T01:23:36;6.80;99.90
12303;DHT22;6214;48.012;7.862;2022-12-07T01:26:12;6.80;99.90
12303;DHT22;6214;48.012;7.862;2022-12-07T01:28:39;6.70;99.90
12303;DHT22;6214;48.012;7.862;2022-12-07T01:31:08;6.60;99.90
12303;DHT22;6214;48.012;7.862;2022-12-07T01:33:38;6.50;99.90
12303;DHT22;6214;48.012;7.862;2022-12-07T01:36:08;6.40;99.90
12303;DHT22;6214;48.012;7.862;2022-12-07T01:38:39;6.20;99.90
12303;DHT22;6214;48.012;7.862;2022-12-07T01:41:06;6.10;99.90
12303;DHT22;6214;48.012;7.862;2022-12-07T01:43:34;6.00;99.90
12303;DHT22;6214;48.012;7.862;2022-12-07T01:46:02;5.90;99.90
12303;DHT22;6214;48.012;7.862;2022-12-07T01:48:38;6.00;99.90
12303;DHT22;6214;48.012;7.862;2022-12-07T01:51:10;6.20;99.90
12303;DHT22;6214;48.012;7.862;2022-12-07T01:53:41;6.20;99.90
12303;DHT22;6214;48.012;7.862;2022-12-07T01:56:11;6.30;99.90
12303;DHT22;6214;48.012;7.862;2022-12-07T01:58:41;6.20;99.90
12303;DHT22;6214;48.012;7.862;2022-12-07T02:01:09;6.30;99.90
12303;DHT22;6214;48.012;7.862;2022-12-07T02:03:41;6.30;99.90
12303;DHT22;6214;48.012;7.862;2022-12-07T02:06:11;6.30;99.90
12303;DHT22;6214;48.012;7.862;2022-12-07T02:08:39;6.30;99.90
12303;DHT22;6214;48.012;7.862;2022-12-07T02:11:07;6.40;99.90
12303;DHT22;6214;48.012;7.862;2022-12-07T02:13:36;6.20;99.90
12303;DHT22;6214;48.012;7.862;2022-12-07T02:19:20;7.30;99.90
12303;DHT22;6214;48.012;7.862;2022-12-07T02:22:41;6.00;99.90
12303;DHT22;6214;48.012;7.862;2022-12-07T02:25:23;5.90;99.90
12303;DHT22;6214;48.012;7.862;2022-12-07T02:28:07;5.90;99.90
12303;DHT22;6214;48.012;7.862;2022-12-07T02:30:45;5.70;99.90
12303;DHT22;6214;48.012;7.862;2022-12-07T02:33:16;5.80;99.90
12303;DHT22;6214;48.012;7.862;2022-12-07T02:35:45;5.90;99.90
12303;DHT22;6214;48.012;7.862;2022-12-07T02:43:43;5.70;99.90
12303;DHT22;6214;48.012;7.862;2022-12-07T02:46:17;5.90;99.90
12303;DHT22;6214;48.012;7.862;2022-12-07T02:48:47;6.00;99.90
12303;DHT22;6214;48.012;7.862;2022-12-07T02:51:18;5.90;99.90
12303;DHT22;6214;48.012;7.862;2022-12-07T02:53:45;5.70;99.90
12303;DHT22;6214;48.012;7.862;2022-12-07T03:15:31;5.80;99.90
12303;DHT22;6214;48.012;7.862;2022-12-07T03:18:00;5.70;99.90
12303;DHT22;6214;48.012;7.862;2022-12-07T03:20:29;5.80;99.90
12303;DHT22;6214;48.012;7.862;2022-12-07T03:22:56;5.90;99.90
12303;DHT22;6214;48.012;7.862;2022-12-07T03:25:24;6.10;99.90
12303;DHT22;6214;48.012;7.862;2022-12-07T03:27:56;6.00;99.90
12303;DHT22;6214;48.012;7.862;2022-12-07T03:30:35;6.00;99.90
12303;DHT22;6214;48.012;7.862;2022-12-07T03:33:08;6.00;99.90
12303;DHT22;6214;48.012;7.862;2022-12-07T03:35:40;6.10;99.90
12303;DHT22;6214;48.012;7.862;2022-12-07T03:38:22;6.20;99.90
12303;DHT22;6214;48.012;7.862;2022-12-07T03:43:30;6.30;99.90
12303;DHT22;6214;48.012;7.862;2022-12-07T03:51:46;6.30;99.90
12303;DHT22;6214;48.012;7.862;2022-12-07T03:54:49;6.30;99.90
12303;DHT22;6214;48.012;7.862;2022-12-07T03:57:18;6.20;99.90
12303;DHT22;6214;48.012;7.862;2022-12-07T03:59:47;6.30;99.90
12303;DHT22;6214;48.012;7.862;2022-12-07T04:02:14;6.20;99.90
12303;DHT22;6214;48.012;7.862;2022-12-07T04:04:42;6.20;99.90
12303;DHT22;6214;48.012;7.862;2022-12-07T04:07:09;6.20;99.90
12303;DHT22;6214;48.012;7.862;2022-12-07T04:09:37;6.20;99.90
12303;DHT22;6214;48.012;7.862;2022-12-07T04:12:04;6.20;99.90
12303;DHT22;6214;48.012;7.862;2022-12-07T04:14:31;6.20;99.90
12303;DHT22;6214;48.012;7.862;2022-12-07T04:16:58;6.20;99.90
12303;DHT22;6214;48.012;7.862;2022-12-07T04:19:30;6.10;99.90
12303;DHT22;6214;48.012;7.862;2022-12-07T04:21:58;6.10;99.90
12303;DHT22;6214;48.012;7.862;2022-12-07T04:24:26;6.00;99.90
12303;DHT22;6214;48.012;7.862;2022-12-07T04:26:53;6.00;99.90
12303;DHT22;6214;48.012;7.862;2022-12-07T04:29:21;6.00;99.90
12303;DHT22;6214;48.012;7.862;2022-12-07T04:31:48;6.10;99.90
12303;DHT22;6214;48.012;7.862;2022-12-07T04:34:15;6.20;99.90
12303;DHT22;6214;48.012;7.862;2022-12-07T04:36:43;6.10;99.90
12303;DHT22;6214;48.012;7.862;2022-12-07T04:39:31;6.10;99.90
12303;DHT22;6214;48.012;7.862;2022-12-07T04:41:59;6.10;99.90
12303;DHT22;6214;48.012;7.862;2022-12-07T04:44:27;6.00;99.90
12303;DHT22;6214;48.012;7.862;2022-12-07T04:46:54;6.00;99.90
12303;DHT22;6214;48.012;7.862;2022-12-07T04:49:22;5.90;99.90
12303;DHT22;6214;48.012;7.862;2022-12-07T04:51:49;6.00;99.90
12303;DHT22;6214;48.012;7.862;2022-12-07T04:54:17;6.10;99.90
12303;DHT22;6214;48.012;7.862;2022-12-07T04:56:44;6.00;99.90
12303;DHT22;6214;48.012;7.862;2022-12-07T04:59:12;6.00;99.90
12303;DHT22;6214;48.012;7.862;2022-12-07T05:01:39;5.90;99.90
12303;DHT22;6214;48.012;7.862;2022-12-07T05:04:06;5.90;99.90
12303;DHT22;6214;48.012;7.862;2022-12-07T05:06:33;5.80;99.90
12303;DHT22;6214;48.012;7.862;2022-12-07T05:09:00;5.80;99.90
12303;DHT22;6214;48.012;7.862;2022-12-07T05:11:27;5.80;99.90
12303;DHT22;6214;48.012;7.862;2022-12-07T05:14:14;5.80;99.90
12303;DHT22;6214;48.012;7.862;2022-12-07T05:16:42;5.80;99.90
12303;DHT22;6214;48.012;7.862;2022-12-07T05:19:09;5.80;99.90
12303;DHT22;6214;48.012;7.862;2022-12-07T05:21:37;5.70;99.90
12303;DHT22;6214;48.012;7.862;2022-12-07T05:24:04;5.70;99.90
12303;DHT22;6214;48.012;7.862;2022-12-07T05:26:32;5.60;99.90
12303;DHT22;6214;48.012;7.862;2022-12-07T05:28:59;5.60;99.90
12303;DHT22;6214;48.012;7.862;2022-12-07T05:31:27;5.50;99.90
12303;DHT22;6214;48.012;7.862;2022-12-07T05:33:54;5.50;99.90
12303;DHT22;6214;48.012;7.862;2022-12-07T05:36:21;5.50;99.90
12303;DHT22;6214;48.012;7.862;2022-12-07T05:38:48;5.60;99.90
12303;DHT22;6214;48.012;7.862;2022-12-07T05:41:17;5.60;99.90
12303;DHT22;6214;48.012;7.862;2022-12-07T05:44:03;5.50;99.90
12303;DHT22;6214;48.012;7.862;2022-12-07T05:46:30;5.50;99.90
12303;DHT22;6214;48.012;7.862;2022-12-07T05:48:57;5.20;99.90
12303;DHT22;6214;48.012;7.862;2022-12-07T05:51:24;4.90;99.90
12303;DHT22;6214;48.012;7.862;2022-12-07T05:53:50;5.00;99.90
12303;DHT22;6214;48.012;7.862;2022-12-07T05:56:17;5.00;99.90
12303;DHT22;6214;48.012;7.862;2022-12-07T05:58:44;5.00;99.90
12303;DHT22;6214;48.012;7.862;2022-12-07T06:01:30;4.90;99.90
12303;DHT22;6214;48.012;7.862;2022-12-07T06:03:57;4.80;99.90
12303;DHT22;6214;48.012;7.862;2022-12-07T06:06:23;4.80;99.90
12303;DHT22;6214;48.012;7.862;2022-12-07T06:08:50;4.50;99.90
12303;DHT22;6214;48.012;7.862;2022-12-07T06:11:17;4.40;99.90
12303;DHT22;6214;48.012;7.862;2022-12-07T06:14:02;4.40;99.90
12303;DHT22;6214;48.012;7.862;2022-12-07T06:16:29;4.40;99.90
12303;DHT22;6214;48.012;7.862;2022-12-07T06:18:56;4.30;99.90
12303;DHT22;6214;48.012;7.862;2022-12-07T06:21:23;4.30;99.90
12303;DHT22;6214;48.012;7.862;2022-12-07T06:23:52;4.30;99.90
12303;DHT22;6214;48.012;7.862;2022-12-07T06:26:19;4.20;99.90
12303;DHT22;6214;48.012;7.862;2022-12-07T06:28:46;4.00;99.90
12303;DHT22;6214;48.012;7.862;2022-12-07T06:31:13;4.00;99.90
12303;DHT22;6214;48.012;7.862;2022-12-07T06:33:41;4.00;99.90
12303;DHT22;6214;48.012;7.862;2022-12-07T06:36:08;4.00;99.90
12303;DHT22;6214;48.012;7.862;2022-12-07T06:38:35;4.00;99.90
12303;DHT22;6214;48.012;7.862;2022-12-07T06:41:02;4.10;99.90
12303;DHT22;6214;48.012;7.862;2022-12-07T06:43:29;4.10;99.90
12303;DHT22;6214;48.012;7.862;2022-12-07T06:45:56;3.80;99.90
12303;DHT22;6214;48.012;7.862;2022-12-07T06:48:23;3.50;99.90
12303;DHT22;6214;48.012;7.862;2022-12-07T06:50:50;3.50;99.90
12303;DHT22;6214;48.012;7.862;2022-12-07T06:53:21;3.40;99.90
12303;DHT22;6214;48.012;7.862;2022-12-07T06:55:48;3.40;99.90
12303;DHT22;6214;48.012;7.862;2022-12-07T06:58:14;3.30;99.90
12303;DHT22;6214;48.012;7.862;2022-12-07T07:00:41;3.40;99.90
12303;DHT22;6214;48.012;7.862;2022-12-07T07:03:08;3.50;99.90
12303;DHT22;6214;48.012;7.862;2022-12-07T07:05:35;3.50;99.90
12303;DHT22;6214;48.012;7.862;2022-12-07T07:08:02;3.70;99.90
12303;DHT22;6214;48.012;7.862;2022-12-07T07:10:49;3.80;99.90
12303;DHT22;6214;48.012;7.862;2022-12-07T07:13:17;3.70;99.90
12303;DHT22;6214;48.012;7.862;2022-12-07T07:15:44;3.60;99.90
12303;DHT22;6214;48.012;7.862;2022-12-07T07:18:11;3.60;99.90
12303;DHT22;6214;48.012;7.862;2022-12-07T07:20:38;3.40;99.90
12303;DHT22;6214;48.012;7.862;2022-12-07T07:23:06;3.40;99.90
12303;DHT22;6214;48.012;7.862;2022-12-07T07:25:33;3.30;99.90
12303;DHT22;6214;48.012;7.862;2022-12-07T07:28:01;3.30;99.90
12303;DHT22;6214;48.012;7.862;2022-12-07T07:30:28;3.30;99.90
12303;DHT22;6214;48.012;7.862;2022-12-07T07:32:59;3.40;99.90
12303;DHT22;6214;48.012;7.862;2022-12-07T07:35:27;3.40;99.90
12303;DHT22;6214;48.012;7.862;2022-12-07T07:37:55;3.30;99.90
12303;DHT22;6214;48.012;7.862;2022-12-07T07:40:22;3.10;99.90
12303;DHT22;6214;48.012;7.862;2022-12-07T07:42:52;3.10;99.90
12303;DHT22;6214;48.012;7.862;2022-12-07T07:45:20;3.10;99.90
12303;DHT22;6214;48.012;7.862;2022-12-07T07:47:48;3.20;99.90
12303;DHT22;6214;48.012;7.862;2022-12-07T07:50:15;3.20;99.90
12303;DHT22;6214;48.012;7.862;2022-12-07T07:52:43;3.10;99.90
12303;DHT22;6214;48.012;7.862;2022-12-07T07:55:10;3.20;99.90
12303;DHT22;6214;48.012;7.862;2022-12-07T07:57:38;3.30;99.90
12303;DHT22;6214;48.012;7.862;2022-12-07T08:00:11;3.30;99.90
12303;DHT22;6214;48.012;7.862;2022-12-07T08:02:38;3.40;99.90
12303;DHT22;6214;48.012;7.862;2022-12-07T08:05:05;3.50;99.90
12303;DHT22;6214;48.012;7.862;2022-12-07T08:07:33;3.60;99.90
12303;DHT22;6214;48.012;7.862;2022-12-07T08:10:00;3.60;99.90
12303;DHT22;6214;48.012;7.862;2022-12-07T08:12:28;3.70;99.90
12303;DHT22;6214;48.012;7.862;2022-12-07T08:14:54;3.90;99.90
12303;DHT22;6214;48.012;7.862;2022-12-07T08:17:21;4.30;99.90
12303;DHT22;6214;48.012;7.862;2022-12-07T08:19:48;5.20;99.90
12303;DHT22;6214;48.012;7.862;2022-12-07T08:22:15;6.40;99.90
12303;DHT22;6214;48.012;7.862;2022-12-07T08:24:42;6.20;99.90
12303;DHT22;6214;48.012;7.862;2022-12-07T08:27:09;6.10;99.90
12303;DHT22;6214;48.012;7.862;2022-12-07T08:29:36;6.00;99.90
12303;DHT22;6214;48.012;7.862;2022-12-07T08:32:03;6.00;99.90
12303;DHT22;6214;48.012;7.862;2022-12-07T08:34:35;6.00;99.90
12303;DHT22;6214;48.012;7.862;2022-12-07T08:37:03;6.10;99.90
12303;DHT22;6214;48.012;7.862;2022-12-07T08:39:30;6.10;99.90
12303;DHT22;6214;48.012;7.862;2022-12-07T08:41:58;6.00;99.90
12303;DHT22;6214;48.012;7.862;2022-12-07T08:44:26;6.10;99.90
12303;DHT22;6214;48.012;7.862;2022-12-07T08:46:59;6.00;99.90
12303;DHT22;6214;48.012;7.862;2022-12-07T08:49:43;6.00;99.90
12303;DHT22;6214;48.012;7.862;2022-12-07T08:52:12;5.80;99.90
12303;DHT22;6214;48.012;7.862;2022-12-07T08:54:40;5.80;99.90
12303;DHT22;6214;48.012;7.862;2022-12-07T08:57:08;5.70;99.90
12303;DHT22;6214;48.012;7.862;2022-12-07T08:59:37;5.70;99.90
12303;DHT22;6214;48.012;7.862;2022-12-07T09:02:05;5.70;99.90
12303;DHT22;6214;48.012;7.862;2022-12-07T09:04:32;5.70;99.90
12303;DHT22;6214;48.012;7.862;2022-12-07T09:06:59;5.50;99.90
12303;DHT22;6214;48.012;7.862;2022-12-07T09:09:26;5.60;99.90
12303;DHT22;6214;48.012;7.862;2022-12-07T09:11:53;5.80;99.90
12303;DHT22;6214;48.012;7.862;2022-12-07T09:14:20;5.80;99.90
12303;DHT22;6214;48.012;7.862;2022-12-07T09:16:47;5.80;99.90
12303;DHT22;6214;48.012;7.862;2022-12-07T09:19:15;5.90;99.90
12303;DHT22;6214;48.012;7.862;2022-12-07T09:21:42;6.00;99.90
12303;DHT22;6214;48.012;7.862;2022-12-07T09:24:08;6.30;99.90
12303;DHT22;6214;48.012;7.862;2022-12-07T09:26:35;6.40;99.90
12303;DHT22;6214;48.012;7.862;2022-12-07T09:29:03;6.50;99.90
12303;DHT22;6214;48.012;7.862;2022-12-07T09:31:30;6.70;99.90
12303;DHT22;6214;48.012;7.862;2022-12-07T09:33:58;6.80;99.90
12303;DHT22;6214;48.012;7.862;2022-12-07T09:36:26;6.80;99.90
12303;DHT22;6214;48.012;7.862;2022-12-07T09:38:54;6.90;99.90
12303;DHT22;6214;48.012;7.862;2022-12-07T09:41:22;6.80;99.90
12303;DHT22;6214;48.012;7.862;2022-12-07T09:43:50;6.90;99.90
12303;DHT22;6214;48.012;7.862;2022-12-07T09:46:19;6.90;99.90
12303;DHT22;6214;48.012;7.862;2022-12-07T09:48:48;6.90;99.90
12303;DHT22;6214;48.012;7.862;2022-12-07T09:51:21;6.90;99.90
12303;DHT22;6214;48.012;7.862;2022-12-07T09:53:53;7.00;99.90
12303;DHT22;6214;48.012;7.862;2022-12-07T09:56:22;7.10;99.90
12303;DHT22;6214;48.012;7.862;2022-12-07T09:58:50;7.20;99.90
12303;DHT22;6214;48.012;7.862;2022-12-07T10:01:20;7.40;99.90
12303;DHT22;6214;48.012;7.862;2022-12-07T10:03:52;7.40;99.90
12303;DHT22;6214;48.012;7.862;2022-12-07T10:06:20;7.40;99.90
12303;DHT22;6214;48.012;7.862;2022-12-07T10:08:47;7.30;99.90
12303;DHT22;6214;48.012;7.862;2022-12-07T10:11:14;7.20;99.90
12303;DHT22;6214;48.012;7.862;2022-12-07T10:13:43;7.30;99.90
12303;DHT22;6214;48.012;7.862;2022-12-07T10:18:51;7.40;99.90
12303;DHT22;6214;48.012;7.862;2022-12-07T10:29:36;7.70;99.90
12303;DHT22;6214;48.012;7.862;2022-12-07T10:34:42;7.90;99.90
12303;DHT22;6214;48.012;7.862;2022-12-07T10:37:17;7.90;99.90
12303;DHT22;6214;48.012;7.862;2022-12-07T10:44:50;7.50;99.90
12303;DHT22;6214;48.012;7.862;2022-12-07T11:04:59;7.80;99.90
12303;DHT22;6214;48.012;7.862;2022-12-07T11:13:16;7.80;99.90
12303;DHT22;6214;48.012;7.862;2022-12-07T11:21:35;8.20;99.90
12303;DHT22;6214;48.012;7.862;2022-12-07T11:24:11;8.30;99.90
12303;DHT22;6214;48.012;7.862;2022-12-07T11:29:29;8.40;99.90
12303;DHT22;6214;48.012;7.862;2022-12-07T11:32:17;8.70;99.90
12303;DHT22;6214;48.012;7.862;2022-12-07T11:37:31;9.00;99.90
12303;DHT22;6214;48.012;7.862;2022-12-07T11:40:27;8.90;99.90
12303;DHT22;6214;48.012;7.862;2022-12-07T11:43:42;9.00;99.90
12303;DHT22;6214;48.012;7.862;2022-12-07T11:45:46;9.00;99.90
12303;DHT22;6214;48.012;7.862;2022-12-07T11:48:22;9.10;99.90
12303;DHT22;6214;48.012;7.862;2022-12-07T11:50:56;9.30;99.90
12303;DHT22;6214;48.012;7.862;2022-12-07T11:53:35;9.30;99.90
12303;DHT22;6214;48.012;7.862;2022-12-07T11:56:29;9.10;99.90
12303;DHT22;6214;48.012;7.862;2022-12-07T11:59:18;9.00;99.90
12303;DHT22;6214;48.012;7.862;2022-12-07T12:02:13;9.00;99.90
12303;DHT22;6214;48.012;7.862;2022-12-07T12:07:27;8.70;99.90
12303;DHT22;6214;48.012;7.862;2022-12-07T12:10:26;8.80;99.90
12303;DHT22;6214;48.012;7.862;2022-12-07T12:16:58;8.80;99.90
12303;DHT22;6214;48.012;7.862;2022-12-07T12:22:32;8.70;99.90
12303;DHT22;6214;48.012;7.862;2022-12-07T12:24:59;8.70;99.90
12303;DHT22;6214;48.012;7.862;2022-12-07T12:27:33;8.70;99.90
12303;DHT22;6214;48.012;7.862;2022-12-07T12:30:05;8.50;99.90
12303;DHT22;6214;48.012;7.862;2022-12-07T12:32:44;8.40;99.90
12303;DHT22;6214;48.012;7.862;2022-12-07T12:40:56;8.50;99.90
12303;DHT22;6214;48.012;7.862;2022-12-07T12:43:48;8.60;99.90
12303;DHT22;6214;48.012;7.862;2022-12-07T12:51:58;8.60;99.90
12303;DHT22;6214;48.012;7.862;2022-12-07T12:54:27;8.60;99.90
12303;DHT22;6214;48.012;7.862;2022-12-07T13:02:47;8.70;99.90
12303;DHT22;6214;48.012;7.862;2022-12-07T13:05:21;8.60;99.90
12303;DHT22;6214;48.012;7.862;2022-12-07T13:15:47;8.50;99.90
12303;DHT22;6214;48.012;7.862;2022-12-07T13:23:55;8.40;99.90
12303;DHT22;6214;48.012;7.862;2022-12-07T13:26:36;8.50;99.90
12303;DHT22;6214;48.012;7.862;2022-12-07T13:29:14;8.50;99.90
12303;DHT22;6214;48.012;7.862;2022-12-07T13:31:54;8.60;99.90
12303;DHT22;6214;48.012;7.862;2022-12-07T13:34:35;8.60;99.90
12303;DHT22;6214;48.012;7.862;2022-12-07T13:39:50;8.40;99.90
12303;DHT22;6214;48.012;7.862;2022-12-07T13:42:32;8.50;99.90
12303;DHT22;6214;48.012;7.862;2022-12-07T13:45:20;8.20;99.90
12303;DHT22;6214;48.012;7.862;2022-12-07T13:47:58;8.20;99.90
12303;DHT22;6214;48.012;7.862;2022-12-07T13:50:28;8.10;99.90
12303;DHT22;6214;48.012;7.862;2022-12-07T13:52:58;8.00;99.90
12303;DHT22;6214;48.012;7.862;2022-12-07T13:55:26;8.00;99.90
12303;DHT22;6214;48.012;7.862;2022-12-07T13:57:54;8.10;99.90
12303;DHT22;6214;48.012;7.862;2022-12-07T14:00:25;8.30;99.90
12303;DHT22;6214;48.012;7.862;2022-12-07T14:02:58;8.30;99.90
12303;DHT22;6214;48.012;7.862;2022-12-07T14:05:33;8.30;99.90
12303;DHT22;6214;48.012;7.862;2022-12-07T14:10:34;8.20;99.90
12303;DHT22;6214;48.012;7.862;2022-12-07T14:13:17;8.20;99.90
12303;DHT22;6214;48.012;7.862;2022-12-07T14:15:50;8.30;99.90
12303;DHT22;6214;48.012;7.862;2022-12-07T14:18:37;8.20;99.90
12303;DHT22;6214;48.012;7.862;2022-12-07T14:23:32;8.10;99.90
12303;DHT22;6214;48.012;7.862;2022-12-07T14:26:08;8.10;99.90
12303;DHT22;6214;48.012;7.862;2022-12-07T14:28:37;8.10;99.90
12303;DHT22;6214;48.012;7.862;2022-12-07T14:31:14;8.00;99.90
12303;DHT22;6214;48.012;7.862;2022-12-07T14:33:51;8.00;99.90
12303;DHT22;6214;48.012;7.862;2022-12-07T14:36:18;7.90;99.90
12303;DHT22;6214;48.012;7.862;2022-12-07T14:38:45;7.80;99.90
12303;DHT22;6214;48.012;7.862;2022-12-07T14:41:15;7.70;99.90
12303;DHT22;6214;48.012;7.862;2022-12-07T14:44:11;7.70;99.90
12303;DHT22;6214;48.012;7.862;2022-12-07T14:46:58;7.70;99.90
12303;DHT22;6214;48.012;7.862;2022-12-07T14:49:45;7.70;99.90
12303;DHT22;6214;48.012;7.862;2022-12-07T14:52:19;7.60;99.90
12303;DHT22;6214;48.012;7.862;2022-12-07T14:57:47;7.50;99.90
12303;DHT22;6214;48.012;7.862;2022-12-07T15:00:16;7.60;99.90
12303;DHT22;6214;48.012;7.862;2022-12-07T15:02:45;7.50;99.90
12303;DHT22;6214;48.012;7.862;2022-12-07T15:05:12;7.50;99.90
12303;DHT22;6214;48.012;7.862;2022-12-07T15:07:43;7.60;99.90
12303;DHT22;6214;48.012;7.862;2022-12-07T15:10:31;7.60;99.90
12303;DHT22;6214;48.012;7.862;2022-12-07T15:13:00;7.60;99.90
12303;DHT22;6214;48.012;7.862;2022-12-07T15:15:48;7.50;99.90
12303;DHT22;6214;48.012;7.862;2022-12-07T15:18:16;7.40;99.90
12303;DHT22;6214;48.012;7.862;2022-12-07T15:20:43;7.40;99.90
12303;DHT22;6214;48.012;7.862;2022-12-07T15:23:11;7.30;99.90
12303;DHT22;6214;48.012;7.862;2022-12-07T15:25:46;7.40;99.90
12303;DHT22;6214;48.012;7.862;2022-12-07T15:28:14;7.30;99.90
12303;DHT22;6214;48.012;7.862;2022-12-07T15:30:42;7.20;99.90
12303;DHT22;6214;48.012;7.862;2022-12-07T15:33:11;7.20;99.90
12303;DHT22;6214;48.012;7.862;2022-12-07T15:35:43;7.20;99.90
12303;DHT22;6214;48.012;7.862;2022-12-07T15:38:10;7.20;99.90
12303;DHT22;6214;48.012;7.862;2022-12-07T15:40:37;7.10;99.90
12303;DHT22;6214;48.012;7.862;2022-12-07T15:43:04;6.90;99.90
12303;DHT22;6214;48.012;7.862;2022-12-07T15:45:31;6.80;99.90
12303;DHT22;6214;48.012;7.862;2022-12-07T15:47:58;6.80;99.90
12303;DHT22;6214;48.012;7.862;2022-12-07T15:50:45;6.80;99.90
12303;DHT22;6214;48.012;7.862;2022-12-07T15:53:11;6.70;99.90
12303;DHT22;6214;48.012;7.862;2022-12-07T15:55:39;6.70;99.90
12303;DHT22;6214;48.012;7.862;2022-12-07T15:58:06;6.60;99.90
12303;DHT22;6214;48.012;7.862;2022-12-07T16:00:33;6.50;99.90
12303;DHT22;6214;48.012;7.862;2022-12-07T16:03:00;6.30;99.90
12303;DHT22;6214;48.012;7.862;2022-12-07T16:05:27;6.10;99.90
12303;DHT22;6214;48.012;7.862;2022-12-07T16:07:54;5.90;99.90
12303;DHT22;6214;48.012;7.862;2022-12-07T16:10:21;5.70;99.90
12303;DHT22;6214;48.012;7.862;2022-12-07T16:12:48;5.50;99.90
12303;DHT22;6214;48.012;7.862;2022-12-07T16:15:15;5.30;99.90
12303;DHT22;6214;48.012;7.862;2022-12-07T16:17:50;5.20;99.90
12303;DHT22;6214;48.012;7.862;2022-12-07T16:20:17;5.20;99.90
12303;DHT22;6214;48.012;7.862;2022-12-07T16:22:44;5.10;99.90
12303;DHT22;6214;48.012;7.862;2022-12-07T16:25:11;5.10;99.90
12303;DHT22;6214;48.012;7.862;2022-12-07T16:27:37;4.90;99.90
12303;DHT22;6214;48.012;7.862;2022-12-07T16:30:05;4.80;99.90
12303;DHT22;6214;48.012;7.862;2022-12-07T16:32:32;4.80;99.90
12303;DHT22;6214;48.012;7.862;2022-12-07T16:34:59;4.70;99.90
12303;DHT22;6214;48.012;7.862;2022-12-07T16:37:26;4.60;99.90
12303;DHT22;6214;48.012;7.862;2022-12-07T16:39:53;4.50;99.90
12303;DHT22;6214;48.012;7.862;2022-12-07T16:42:20;4.50;99.90
12303;DHT22;6214;48.012;7.862;2022-12-07T16:44:47;4.40;99.90
12303;DHT22;6214;48.012;7.862;2022-12-07T16:47:14;4.40;99.90
12303;DHT22;6214;48.012;7.862;2022-12-07T16:49:42;4.30;99.90
12303;DHT22;6214;48.012;7.862;2022-12-07T16:52:09;4.20;99.90
12303;DHT22;6214;48.012;7.862;2022-12-07T16:54:51;4.10;99.90
12303;DHT22;6214;48.012;7.862;2022-12-07T16:57:18;4.00;99.90
12303;DHT22;6214;48.012;7.862;2022-12-07T16:59:50;4.00;99.90
12303;DHT22;6214;48.012;7.862;2022-12-07T17:02:18;3.90;99.90
12303;DHT22;6214;48.012;7.862;2022-12-07T17:04:45;3.90;99.90
12303;DHT22;6214;48.012;7.862;2022-12-07T17:07:12;3.80;99.90
12303;DHT22;6214;48.012;7.862;2022-12-07T17:09:39;3.80;99.90
12303;DHT22;6214;48.012;7.862;2022-12-07T17:12:06;3.80;99.90
12303;DHT22;6214;48.012;7.862;2022-12-07T17:14:33;3.80;99.90
12303;DHT22;6214;48.012;7.862;2022-12-07T17:17:19;3.70;99.90
12303;DHT22;6214;48.012;7.862;2022-12-07T17:19:46;3.70;99.90
12303;DHT22;6214;48.012;7.862;2022-12-07T17:22:12;3.70;99.90
12303;DHT22;6214;48.012;7.862;2022-12-07T17:24:39;3.60;99.90
12303;DHT22;6214;48.012;7.862;2022-12-07T17:27:06;3.50;99.90
12303;DHT22;6214;48.012;7.862;2022-12-07T17:29:33;3.50;99.90
12303;DHT22;6214;48.012;7.862;2022-12-07T17:32:00;3.60;99.90
12303;DHT22;6214;48.012;7.862;2022-12-07T17:34:27;3.60;99.90
12303;DHT22;6214;48.012;7.862;2022-12-07T17:36:54;3.60;99.90
12303;DHT22;6214;48.012;7.862;2022-12-07T17:39:21;3.60;99.90
12303;DHT22;6214;48.012;7.862;2022-12-07T17:41:48;3.70;99.90
12303;DHT22;6214;48.012;7.862;2022-12-07T17:44:34;3.80;99.90
12303;DHT22;6214;48.012;7.862;2022-12-07T17:47:01;3.70;99.90
12303;DHT22;6214;48.012;7.862;2022-12-07T17:49:29;3.80;99.90
12303;DHT22;6214;48.012;7.862;2022-12-07T17:51:57;3.80;99.90
12303;DHT22;6214;48.012;7.862;2022-12-07T17:54:42;3.90;99.90
12303;DHT22;6214;48.012;7.862;2022-12-07T17:57:09;3.90;99.90
12303;DHT22;6214;48.012;7.862;2022-12-07T17:59:36;4.00;99.90
12303;DHT22;6214;48.012;7.862;2022-12-07T18:02:03;4.00;99.90
12303;DHT22;6214;48.012;7.862;2022-12-07T18:04:31;4.00;99.90
12303;DHT22;6214;48.012;7.862;2022-12-07T18:06:58;4.00;99.90
12303;DHT22;6214;48.012;7.862;2022-12-07T18:09:25;4.00;99.90
12303;DHT22;6214;48.012;7.862;2022-12-07T18:11:52;3.90;99.90
12303;DHT22;6214;48.012;7.862;2022-12-07T18:14:19;4.00;99.90
12303;DHT22;6214;48.012;7.862;2022-12-07T18:16:45;3.90;99.90
12303;DHT22;6214;48.012;7.862;2022-12-07T18:19:12;3.90;99.90
12303;DHT22;6214;48.012;7.862;2022-12-07T18:21:40;3.80;99.90
12303;DHT22;6214;48.012;7.862;2022-12-07T18:24:10;3.90;99.90
12303;DHT22;6214;48.012;7.862;2022-12-07T18:26:38;3.80;99.90
12303;DHT22;6214;48.012;7.862;2022-12-07T18:29:06;3.60;99.90
12303;DHT22;6214;48.012;7.862;2022-12-07T18:31:33;3.60;99.90
12303;DHT22;6214;48.012;7.862;2022-12-07T18:34:08;3.70;99.90
12303;DHT22;6214;48.012;7.862;2022-12-07T18:36:38;3.60;99.90
12303;DHT22;6214;48.012;7.862;2022-12-07T18:39:06;3.50;99.90
12303;DHT22;6214;48.012;7.862;2022-12-07T18:41:33;3.40;99.90
12303;DHT22;6214;48.012;7.862;2022-12-07T18:44:03;3.20;99.90